sensor_id;sensor_type;location;lat;lon;timestamp;temperature;humidity
21267;DHT22;10791;53.108;18.326;2023-05-16T00:03:07;12.60;99.90
21267;DHT22;10791;53.108;18.326;2023-05-16T00:08:14;12.50;99.90
21267;DHT22;10791;53.108;18.326;2023-05-16T00:13:17;12.50;99.90
21267;DHT22;10791;53.108;18.326;2023-05-16T00:18:24;12.50;99.90
21267;DHT22;10791;53.108;18.326;2023-05-16T00:23:29;12.60;99.90
21267;DHT22;10791;53.108;18.326;2023-05-16T00:28:33;12.50;99.90
21267;DHT22;10791;53.108;18.326;2023-05-16T00:33:37;12.50;99.90
21267;DHT22;10791;53.108;18.326;2023-05-16T00:38:41;12.50;99.90
21267;DHT22;10791;53.108;18.326;2023-05-16T00:43:44;12.50;99.90
21267;DHT22;10791;53.108;18.326;2023-05-16T00:48:47;12.40;99.90
21267;DHT22;10791;53.108;18.326;2023-05-16T00:53:51;12.40;99.90
21267;DHT22;10791;53.108;18.326;2023-05-16T00:58:54;12.40;99.90
21267;DHT22;10791;53.108;18.326;2023-05-16T01:03:59;12.40;99.90
21267;DHT22;10791;53.108;18.326;2023-05-16T01:09:03;12.30;99.90
21267;DHT22;10791;53.108;18.326;2023-05-16T01:19:49;12.30;99.90
21267;DHT22;10791;53.108;18.326;2023-05-16T01:30:14;12.30;99.90
21267;DHT22;10791;53.108;18.326;2023-05-16T01:35:19;12.30;99.90
21267;DHT22;10791;53.108;18.326;2023-05-16T01:40:35;12.20;99.90
21267;DHT22;10791;53.108;18.326;2023-05-16T01:45:49;12.20;99.90
21267;DHT22;10791;53.108;18.326;2023-05-16T01:50:56;12.20;99.90
21267;DHT22;10791;53.108;18.326;2023-05-16T01:56:00;12.20;99.90
21267;DHT22;10791;53.108;18.326;2023-05-16T02:01:04;12.20;99.90
21267;DHT22;10791;53.108;18.326;2023-05-16T02:06:09;12.20;99.90
21267;DHT22;10791;53.108;18.326;2023-05-16T02:11:12;12.20;99.90
21267;DHT22;10791;53.108;18.326;2023-05-16T02:16:16;12.10;99.90
21267;DHT22;10791;53.108;18.326;2023-05-16T02:21:19;12.10;99.90
21267;DHT22;10791;53.108;18.326;2023-05-16T02:26:23;12.10;99.90
21267;DHT22;10791;53.108;18.326;2023-05-16T02:31:31;12.10;99.90
21267;DHT22;10791;53.108;18.326;2023-05-16T02:36:34;12.10;99.90
21267;DHT22;10791;53.108;18.326;2023-05-16T02:41:38;12.10;99.90
21267;DHT22;10791;53.108;18.326;2023-05-16T02:46:41;12.10;99.90
21267;DHT22;10791;53.108;18.326;2023-05-16T02:51:45;12.10;99.90
21267;DHT22;10791;53.108;18.326;2023-05-16T02:56:48;12.10;99.90
21267;DHT22;10791;53.108;18.326;2023-05-16T03:01:51;12.00;99.90
21267;DHT22;10791;53.108;18.326;2023-05-16T03:06:55;12.10;99.90
21267;DHT22;10791;53.108;18.326;2023-05-16T03:11:58;12.10;99.90
21267;DHT22;10791;53.108;18.326;2023-05-16T03:17:02;12.00;99.90
21267;DHT22;10791;53.108;18.326;2023-05-16T03:22:05;12.00;99.90
21267;DHT22;10791;53.108;18.326;2023-05-16T03:27:09;12.00;99.90
21267;DHT22;10791;53.108;18.326;2023-05-16T03:32:12;12.10;99.90
21267;DHT22;10791;53.108;18.326;2023-05-16T03:37:16;12.10;99.90
21267;DHT22;10791;53.108;18.326;2023-05-16T03:42:19;12.00;99.90
21267;DHT22;10791;53.108;18.326;2023-05-16T03:47:22;12.00;99.90
21267;DHT22;10791;53.108;18.326;2023-05-16T03:52:26;12.00;99.90
21267;DHT22;10791;53.108;18.326;2023-05-16T03:57:31;12.00;99.90
21267;DHT22;10791;53.108;18.326;2023-05-16T04:02:34;12.00;99.90
21267;DHT22;10791;53.108;18.326;2023-05-16T04:07:39;12.00;99.90
21267;DHT22;10791;53.108;18.326;2023-05-16T04:12:43;12.10;99.90
21267;DHT22;10791;53.108;18.326;2023-05-16T04:17:46;12.10;99.90
21267;DHT22;10791;53.108;18.326;2023-05-16T04:22:50;12.20;99.90
21267;DHT22;10791;53.108;18.326;2023-05-16T04:27:54;12.20;99.90
21267;DHT22;10791;53.108;18.326;2023-05-16T04:32:58;12.20;99.90
21267;DHT22;10791;53.108;18.326;2023-05-16T04:38:01;12.30;99.90
21267;DHT22;10791;53.108;18.326;2023-05-16T04:43:04;12.40;99.90
21267;DHT22;10791;53.108;18.326;2023-05-16T04:48:09;12.40;99.90
21267;DHT22;10791;53.108;18.326;2023-05-16T04:53:14;12.50;99.90
21267;DHT22;10791;53.108;18.326;2023-05-16T04:58:17;12.50;99.90
21267;DHT22;10791;53.108;18.326;2023-05-16T05:03:20;12.60;99.90
21267;DHT22;10791;53.108;18.326;2023-05-16T05:08:24;12.60;99.90
21267;DHT22;10791;53.108;18.326;2023-05-16T05:13:28;12.50;99.90
21267;DHT22;10791;53.108;18.326;2023-05-16T05:18:31;12.60;99.90
21267;DHT22;10791;53.108;18.326;2023-05-16T05:23:35;12.60;99.90
21267;DHT22;10791;53.108;18.326;2023-05-16T05:28:38;12.70;99.90
21267;DHT22;10791;53.108;18.326;2023-05-16T05:33:45;12.80;99.90
21267;DHT22;10791;53.108;18.326;2023-05-16T05:38:49;12.90;99.90
21267;DHT22;10791;53.108;18.326;2023-05-16T05:43:52;13.00;99.90
21267;DHT22;10791;53.108;18.326;2023-05-16T05:48:55;13.20;99.90
21267;DHT22;10791;53.108;18.326;2023-05-16T05:53:58;13.30;99.90
21267;DHT22;10791;53.108;18.326;2023-05-16T05:59:02;13.40;99.90
21267;DHT22;10791;53.108;18.326;2023-05-16T06:04:05;13.60;99.90
21267;DHT22;10791;53.108;18.326;2023-05-16T06:09:08;13.70;99.90
21267;DHT22;10791;53.108;18.326;2023-05-16T06:14:13;13.70;99.90
21267;DHT22;10791;53.108;18.326;2023-05-16T06:19:16;13.70;99.90
21267;DHT22;10791;53.108;18.326;2023-05-16T06:24:20;13.90;99.90
21267;DHT22;10791;53.108;18.326;2023-05-16T06:29:23;14.00;99.90
21267;DHT22;10791;53.108;18.326;2023-05-16T06:34:27;14.10;99.90
21267;DHT22;10791;53.108;18.326;2023-05-16T06:39:30;14.30;99.90
21267;DHT22;10791;53.108;18.326;2023-05-16T06:44:33;14.50;99.90
21267;DHT22;10791;53.108;18.326;2023-05-16T06:49:37;14.60;99.90
21267;DHT22;10791;53.108;18.326;2023-05-16T06:54:40;14.40;99.90
21267;DHT22;10791;53.108;18.326;2023-05-16T06:59:44;14.20;99.90
21267;DHT22;10791;53.108;18.326;2023-05-16T07:04:47;14.20;99.90
21267;DHT22;10791;53.108;18.326;2023-05-16T07:09:50;14.10;99.90
21267;DHT22;10791;53.108;18.326;2023-05-16T07:14:54;14.10;99.90
21267;DHT22;10791;53.108;18.326;2023-05-16T07:19:57;14.10;99.90
21267;DHT22;10791;53.108;18.326;2023-05-16T07:25:00;14.00;99.90
21267;DHT22;10791;53.108;18.326;2023-05-16T07:30:04;14.00;99.90
21267;DHT22;10791;53.108;18.326;2023-05-16T07:35:07;14.10;99.90
21267;DHT22;10791;53.108;18.326;2023-05-16T07:40:11;14.20;99.90
21267;DHT22;10791;53.108;18.326;2023-05-16T07:45:15;14.30;99.90
21267;DHT22;10791;53.108;18.326;2023-05-16T07:50:20;14.30;99.90
21267;DHT22;10791;53.108;18.326;2023-05-16T07:55:24;14.40;99.90
21267;DHT22;10791;53.108;18.326;2023-05-16T08:00:28;14.40;99.90
21267;DHT22;10791;53.108;18.326;2023-05-16T08:05:33;14.40;99.90
21267;DHT22;10791;53.108;18.326;2023-05-16T08:10:40;14.40;99.90
21267;DHT22;10791;53.108;18.326;2023-05-16T08:15:45;14.50;99.90
21267;DHT22;10791;53.108;18.326;2023-05-16T08:20:48;14.80;99.90
21267;DHT22;10791;53.108;18.326;2023-05-16T08:25:54;15.00;99.90
21267;DHT22;10791;53.108;18.326;2023-05-16T08:30:58;15.20;99.90
21267;DHT22;10791;53.108;18.326;2023-05-16T08:36:01;15.20;99.90
21267;DHT22;10791;53.108;18.326;2023-05-16T08:41:05;15.20;99.90
21267;DHT22;10791;53.108;18.326;2023-05-16T08:46:08;15.20;99.90
21267;DHT22;10791;53.108;18.326;2023-05-16T08:51:13;15.50;99.90
21267;DHT22;10791;53.108;18.326;2023-05-16T08:56:37;16.00;99.90
21267;DHT22;10791;53.108;18.326;2023-05-16T09:01:41;16.20;99.90
21267;DHT22;10791;53.108;18.326;2023-05-16T09:06:45;16.50;99.90
21267;DHT22;10791;53.108;18.326;2023-05-16T09:11:49;16.50;99.90
21267;DHT22;10791;53.108;18.326;2023-05-16T09:17:07;16.00;99.90
21267;DHT22;10791;53.108;18.326;2023-05-16T09:22:14;15.80;99.90
21267;DHT22;10791;53.108;18.326;2023-05-16T09:27:17;16.10;99.90
21267;DHT22;10791;53.108;18.326;2023-05-16T09:32:27;16.70;99.90
21267;DHT22;10791;53.108;18.326;2023-05-16T09:37:30;17.00;99.90
21267;DHT22;10791;53.108;18.326;2023-05-16T09:42:33;16.90;99.90
21267;DHT22;10791;53.108;18.326;2023-05-16T09:47:39;17.10;99.90
21267;DHT22;10791;53.108;18.326;2023-05-16T09:52:50;17.10;99.90
21267;DHT22;10791;53.108;18.326;2023-05-16T09:57:53;17.10;99.90
21267;DHT22;10791;53.108;18.326;2023-05-16T10:02:58;17.30;99.90
21267;DHT22;10791;53.108;18.326;2023-05-16T10:08:08;17.40;99.90
21267;DHT22;10791;53.108;18.326;2023-05-16T10:13:14;17.60;99.90
21267;DHT22;10791;53.108;18.326;2023-05-16T10:18:21;17.80;99.90
21267;DHT22;10791;53.108;18.326;2023-05-16T10:23:28;17.70;99.90
21267;DHT22;10791;53.108;18.326;2023-05-16T10:28:35;18.10;99.90
21267;DHT22;10791;53.108;18.326;2023-05-16T10:33:39;18.40;99.90
21267;DHT22;10791;53.108;18.326;2023-05-16T10:38:48;18.50;99.90
21267;DHT22;10791;53.108;18.326;2023-05-16T10:43:57;18.70;99.90
21267;DHT22;10791;53.108;18.326;2023-05-16T10:49:22;18.90;99.90
21267;DHT22;10791;53.108;18.326;2023-05-16T10:54:54;18.80;99.90
21267;DHT22;10791;53.108;18.326;2023-05-16T10:59:57;19.00;99.90
21267;DHT22;10791;53.108;18.326;2023-05-16T11:05:05;19.30;99.90
21267;DHT22;10791;53.108;18.326;2023-05-16T11:10:14;19.50;99.90
21267;DHT22;10791;53.108;18.326;2023-05-16T11:15:31;19.60;99.90
21267;DHT22;10791;53.108;18.326;2023-05-16T11:20:38;19.30;99.90
21267;DHT22;10791;53.108;18.326;2023-05-16T11:25:44;18.80;99.90
21267;DHT22;10791;53.108;18.326;2023-05-16T11:30:49;18.70;99.90
21267;DHT22;10791;53.108;18.326;2023-05-16T11:36:00;18.70;99.90
21267;DHT22;10791;53.108;18.326;2023-05-16T11:41:17;18.80;99.90
21267;DHT22;10791;53.108;18.326;2023-05-16T11:46:21;19.00;99.90
21267;DHT22;10791;53.108;18.326;2023-05-16T11:51:24;19.20;99.90
21267;DHT22;10791;53.108;18.326;2023-05-16T11:56:27;19.30;99.90
21267;DHT22;10791;53.108;18.326;2023-05-16T12:01:34;19.70;99.90
21267;DHT22;10791;53.108;18.326;2023-05-16T12:06:38;19.90;99.90
21267;DHT22;10791;53.108;18.326;2023-05-16T12:11:43;20.00;99.90
21267;DHT22;10791;53.108;18.326;2023-05-16T12:16:46;19.80;99.90
21267;DHT22;10791;53.108;18.326;2023-05-16T12:21:52;19.70;99.90
21267;DHT22;10791;53.108;18.326;2023-05-16T12:26:56;19.50;99.50
21267;DHT22;10791;53.108;18.326;2023-05-16T12:32:01;19.30;99.90
21267;DHT22;10791;53.108;18.326;2023-05-16T12:37:04;19.10;99.90
21267;DHT22;10791;53.108;18.326;2023-05-16T12:42:08;18.80;99.90
21267;DHT22;10791;53.108;18.326;2023-05-16T12:47:13;18.80;99.90
21267;DHT22;10791;53.108;18.326;2023-05-16T12:52:20;18.80;99.90
21267;DHT22;10791;53.108;18.326;2023-05-16T12:57:24;19.00;99.90
21267;DHT22;10791;53.108;18.326;2023-05-16T13:02:31;19.20;99.90
21267;DHT22;10791;53.108;18.326;2023-05-16T13:07:36;19.40;99.90
21267;DHT22;10791;53.108;18.326;2023-05-16T13:12:41;19.60;99.90
21267;DHT22;10791;53.108;18.326;2023-05-16T13:17:44;19.70;99.90
21267;DHT22;10791;53.108;18.326;2023-05-16T13:22:50;19.50;99.90
21267;DHT22;10791;53.108;18.326;2023-05-16T13:27:53;19.50;99.90
21267;DHT22;10791;53.108;18.326;2023-05-16T13:32:57;19.40;99.90
21267;DHT22;10791;53.108;18.326;2023-05-16T13:38:01;19.30;99.90
21267;DHT22;10791;53.108;18.326;2023-05-16T13:43:06;19.00;99.90
21267;DHT22;10791;53.108;18.326;2023-05-16T13:48:09;18.90;99.90
21267;DHT22;10791;53.108;18.326;2023-05-16T13:53:13;18.60;99.90
21267;DHT22;10791;53.108;18.326;2023-05-16T13:58:16;18.50;99.90
21267;DHT22;10791;53.108;18.326;2023-05-16T14:03:20;18.40;99.90
21267;DHT22;10791;53.108;18.326;2023-05-16T14:08:25;18.50;99.90
21267;DHT22;10791;53.108;18.326;2023-05-16T14:13:28;18.60;99.90
21267;DHT22;10791;53.108;18.326;2023-05-16T14:18:31;18.90;99.90
21267;DHT22;10791;53.108;18.326;2023-05-16T14:23:35;19.10;99.90
21267;DHT22;10791;53.108;18.326;2023-05-16T14:28:39;19.20;99.90
21267;DHT22;10791;53.108;18.326;2023-05-16T14:33:43;19.10;99.90
21267;DHT22;10791;53.108;18.326;2023-05-16T14:38:48;19.00;99.90
21267;DHT22;10791;53.108;18.326;2023-05-16T14:43:54;18.80;99.90
21267;DHT22;10791;53.108;18.326;2023-05-16T14:48:58;19.10;99.90
21267;DHT22;10791;53.108;18.326;2023-05-16T14:54:01;19.40;99.90
21267;DHT22;10791;53.108;18.326;2023-05-16T14:59:04;19.60;99.90
21267;DHT22;10791;53.108;18.326;2023-05-16T15:04:08;19.50;99.90
21267;DHT22;10791;53.108;18.326;2023-05-16T15:09:12;19.30;99.90
21267;DHT22;10791;53.108;18.326;2023-05-16T15:14:16;19.10;99.90
21267;DHT22;10791;53.108;18.326;2023-05-16T15:19:19;18.90;99.90
21267;DHT22;10791;53.108;18.326;2023-05-16T15:24:23;18.60;99.90
21267;DHT22;10791;53.108;18.326;2023-05-16T15:29:26;18.50;99.90
21267;DHT22;10791;53.108;18.326;2023-05-16T15:34:30;18.30;99.90
21267;DHT22;10791;53.108;18.326;2023-05-16T15:39:34;18.10;99.90
21267;DHT22;10791;53.108;18.326;2023-05-16T15:44:38;18.10;99.90
21267;DHT22;10791;53.108;18.326;2023-05-16T15:49:41;17.90;99.90
21267;DHT22;10791;53.108;18.326;2023-05-16T15:54:45;17.70;99.90
21267;DHT22;10791;53.108;18.326;2023-05-16T15:59:48;17.50;99.90
21267;DHT22;10791;53.108;18.326;2023-05-16T16:04:51;17.50;99.90
21267;DHT22;10791;53.108;18.326;2023-05-16T16:09:54;17.50;99.90
21267;DHT22;10791;53.108;18.326;2023-05-16T16:14:57;17.30;99.90
21267;DHT22;10791;53.108;18.326;2023-05-16T16:20:01;17.20;99.90
21267;DHT22;10791;53.108;18.326;2023-05-16T16:25:05;17.00;99.90
21267;DHT22;10791;53.108;18.326;2023-05-16T16:30:09;17.00;99.90
21267;DHT22;10791;53.108;18.326;2023-05-16T16:35:13;16.80;99.90
21267;DHT22;10791;53.108;18.326;2023-05-16T16:40:17;16.90;99.90
21267;DHT22;10791;53.108;18.326;2023-05-16T16:45:20;16.70;99.90
21267;DHT22;10791;53.108;18.326;2023-05-16T16:50:24;16.70;99.90
21267;DHT22;10791;53.108;18.326;2023-05-16T16:55:28;16.60;99.90
21267;DHT22;10791;53.108;18.326;2023-05-16T17:00:32;16.50;99.90
21267;DHT22;10791;53.108;18.326;2023-05-16T17:05:36;16.40;99.90
21267;DHT22;10791;53.108;18.326;2023-05-16T17:10:40;16.30;99.90
21267;DHT22;10791;53.108;18.326;2023-05-16T17:15:44;16.20;99.90
21267;DHT22;10791;53.108;18.326;2023-05-16T17:20:50;16.10;99.90
21267;DHT22;10791;53.108;18.326;2023-05-16T17:25:55;16.10;99.90
21267;DHT22;10791;53.108;18.326;2023-05-16T17:30:59;16.00;99.90
21267;DHT22;10791;53.108;18.326;2023-05-16T17:36:06;16.00;99.90
21267;DHT22;10791;53.108;18.326;2023-05-16T17:41:10;15.90;99.90
21267;DHT22;10791;53.108;18.326;2023-05-16T17:46:13;15.90;99.90
21267;DHT22;10791;53.108;18.326;2023-05-16T17:51:17;15.80;99.90
21267;DHT22;10791;53.108;18.326;2023-05-16T17:56:23;15.70;99.90
21267;DHT22;10791;53.108;18.326;2023-05-16T18:01:28;15.60;99.90
21267;DHT22;10791;53.108;18.326;2023-05-16T18:06:41;15.40;99.90
21267;DHT22;10791;53.108;18.326;2023-05-16T18:11:44;15.30;99.90
21267;DHT22;10791;53.108;18.326;2023-05-16T18:16:48;15.20;99.90
21267;DHT22;10791;53.108;18.326;2023-05-16T18:21:52;15.10;99.90
21267;DHT22;10791;53.108;18.326;2023-05-16T18:26:55;15.10;99.90
21267;DHT22;10791;53.108;18.326;2023-05-16T18:31:59;15.00;99.90
21267;DHT22;10791;53.108;18.326;2023-05-16T18:37:03;14.90;99.90
21267;DHT22;10791;53.108;18.326;2023-05-16T18:42:08;14.90;99.90
21267;DHT22;10791;53.108;18.326;2023-05-16T18:47:12;14.70;99.90
21267;DHT22;10791;53.108;18.326;2023-05-16T18:52:18;14.50;99.90
21267;DHT22;10791;53.108;18.326;2023-05-16T18:57:23;14.40;99.90
21267;DHT22;10791;53.108;18.326;2023-05-16T19:02:26;14.20;99.90
21267;DHT22;10791;53.108;18.326;2023-05-16T19:07:45;14.10;99.90
21267;DHT22;10791;53.108;18.326;2023-05-16T19:12:49;14.00;99.90
21267;DHT22;10791;53.108;18.326;2023-05-16T19:17:53;14.00;99.90
21267;DHT22;10791;53.108;18.326;2023-05-16T19:22:58;13.90;99.90
21267;DHT22;10791;53.108;18.326;2023-05-16T19:28:05;13.80;99.90
21267;DHT22;10791;53.108;18.326;2023-05-16T19:33:09;13.90;99.90
21267;DHT22;10791;53.108;18.326;2023-05-16T19:38:18;13.90;99.90
21267;DHT22;10791;53.108;18.326;2023-05-16T19:43:26;13.80;99.90
21267;DHT22;10791;53.108;18.326;2023-05-16T19:48:30;13.80;99.90
21267;DHT22;10791;53.108;18.326;2023-05-16T19:53:34;13.80;99.90
21267;DHT22;10791;53.108;18.326;2023-05-16T19:58:38;13.70;99.90
21267;DHT22;10791;53.108;18.326;2023-05-16T20:03:42;13.70;99.90
21267;DHT22;10791;53.108;18.326;2023-05-16T20:08:45;13.60;99.90
21267;DHT22;10791;53.108;18.326;2023-05-16T20:13:49;13.50;99.90
21267;DHT22;10791;53.108;18.326;2023-05-16T20:18:52;13.40;99.90
21267;DHT22;10791;53.108;18.326;2023-05-16T20:23:56;13.40;99.90
21267;DHT22;10791;53.108;18.326;2023-05-16T20:28:59;13.40;99.90
21267;DHT22;10791;53.108;18.326;2023-05-16T20:34:03;13.30;99.90
21267;DHT22;10791;53.108;18.326;2023-05-16T20:39:07;13.30;99.90
21267;DHT22;10791;53.108;18.326;2023-05-16T20:44:11;13.30;99.90
21267;DHT22;10791;53.108;18.326;2023-05-16T20:49:15;13.30;99.90
21267;DHT22;10791;53.108;18.326;2023-05-16T20:54:18;13.20;99.90
21267;DHT22;10791;53.108;18.326;2023-05-16T20:59:23;13.20;99.90
21267;DHT22;10791;53.108;18.326;2023-05-16T21:04:27;13.20;99.90
21267;DHT22;10791;53.108;18.326;2023-05-16T21:09:32;13.20;99.90
21267;DHT22;10791;53.108;18.326;2023-05-16T21:14:35;13.20;99.90
21267;DHT22;10791;53.108;18.326;2023-05-16T21:19:39;13.20;99.90
21267;DHT22;10791;53.108;18.326;2023-05-16T21:24:42;13.20;99.90
21267;DHT22;10791;53.108;18.326;2023-05-16T21:29:46;13.20;99.90
21267;DHT22;10791;53.108;18.326;2023-05-16T21:34:49;13.20;99.90
21267;DHT22;10791;53.108;18.326;2023-05-16T21:39:52;13.10;99.90
21267;DHT22;10791;53.108;18.326;2023-05-16T21:44:56;13.10;99.90
21267;DHT22;10791;53.108;18.326;2023-05-16T21:49:59;13.10;99.90
21267;DHT22;10791;53.108;18.326;2023-05-16T21:55:03;13.00;99.90
21267;DHT22;10791;53.108;18.326;2023-05-16T22:00:07;13.00;99.90
21267;DHT22;10791;53.108;18.326;2023-05-16T22:05:12;13.00;99.90
21267;DHT22;10791;53.108;18.326;2023-05-16T22:10:16;13.00;99.90
21267;DHT22;10791;53.108;18.326;2023-05-16T22:15:20;13.00;99.90
21267;DHT22;10791;53.108;18.326;2023-05-16T22:20:23;13.00;99.90
21267;DHT22;10791;53.108;18.326;2023-05-16T22:25:28;13.00;99.90
21267;DHT22;10791;53.108;18.326;2023-05-16T22:30:32;13.00;99.90
21267;DHT22;10791;53.108;18.326;2023-05-16T22:35:35;13.00;99.90
21267;DHT22;10791;53.108;18.326;2023-05-16T22:40:38;12.90;99.90
21267;DHT22;10791;53.108;18.326;2023-05-16T22:45:43;12.90;99.90
21267;DHT22;10791;53.108;18.326;2023-05-16T22:50:46;12.90;99.90
21267;DHT22;10791;53.108;18.326;2023-05-16T22:55:49;12.80;99.90
21267;DHT22;10791;53.108;18.326;2023-05-16T23:00:53;12.80;99.90
21267;DHT22;10791;53.108;18.326;2023-05-16T23:05:56;12.80;99.90
21267;DHT22;10791;53.108;18.326;2023-05-16T23:10:59;12.70;99.90
21267;DHT22;10791;53.108;18.326;2023-05-16T23:16:03;12.70;99.90
21267;DHT22;10791;53.108;18.326;2023-05-16T23:21:07;12.70;99.90
21267;DHT22;10791;53.108;18.326;2023-05-16T23:26:10;12.60;99.90
21267;DHT22;10791;53.108;18.326;2023-05-16T23:31:13;12.60;99.90
21267;DHT22;10791;53.108;18.326;2023-05-16T23:36:16;12.50;99.90
21267;DHT22;10791;53.108;18.326;2023-05-16T23:41:19;12.40;99.90
21267;DHT22;10791;53.108;18.326;2023-05-16T23:46:24;12.40;99.90
21267;DHT22;10791;53.108;18.326;2023-05-16T23:51:27;12.40;99.90
21267;DHT22;10791;53.108;18.326;2023-05-16T23:56:43;12.30;99.90
